sensor_id;sensor_type;location;lat;lon;timestamp;pressure;altitude;pressure_sealevel;temperature
7389;BMP180;3735;50.136;11.062;2023-01-06T00:00:37;98672.00;;;8.50
7389;BMP180;3735;50.136;11.062;2023-01-06T00:03:03;98663.00;;;8.50
7389;BMP180;3735;50.136;11.062;2023-01-06T00:05:29;98662.00;;;8.50
7389;BMP180;3735;50.136;11.062;2023-01-06T00:07:56;98655.00;;;8.40
7389;BMP180;3735;50.136;11.062;2023-01-06T00:10:22;98651.00;;;8.40
7389;BMP180;3735;50.136;11.062;2023-01-06T00:12:49;98647.00;;;8.40
7389;BMP180;3735;50.136;11.062;2023-01-06T00:15:16;98648.00;;;8.40
7389;BMP180;3735;50.136;11.062;2023-01-06T00:17:43;98637.00;;;8.30
7389;BMP180;3735;50.136;11.062;2023-01-06T00:20:11;98636.00;;;8.40
7389;BMP180;3735;50.136;11.062;2023-01-06T00:22:41;98643.00;;;8.30
7389;BMP180;3735;50.136;11.062;2023-01-06T00:25:08;98644.00;;;8.30
7389;BMP180;3735;50.136;11.062;2023-01-06T00:27:38;98649.00;;;8.30
7389;BMP180;3735;50.136;11.062;2023-01-06T00:30:05;98649.00;;;8.30
7389;BMP180;3735;50.136;11.062;2023-01-06T00:32:31;98643.00;;;8.30
7389;BMP180;3735;50.136;11.062;2023-01-06T00:34:57;98644.00;;;8.30
7389;BMP180;3735;50.136;11.062;2023-01-06T00:37:23;98631.00;;;8.40
7389;BMP180;3735;50.136;11.062;2023-01-06T00:39:49;98651.00;;;8.40
7389;BMP180;3735;50.136;11.062;2023-01-06T00:42:14;98649.00;;;8.50
7389;BMP180;3735;50.136;11.062;2023-01-06T00:44:40;98641.00;;;8.50
7389;BMP180;3735;50.136;11.062;2023-01-06T00:47:09;98640.00;;;8.50
7389;BMP180;3735;50.136;11.062;2023-01-06T00:49:35;98644.00;;;8.50
7389;BMP180;3735;50.136;11.062;2023-01-06T00:52:02;98642.00;;;8.50
7389;BMP180;3735;50.136;11.062;2023-01-06T00:54:28;98640.00;;;8.50
7389;BMP180;3735;50.136;11.062;2023-01-06T00:56:54;98629.00;;;8.60
7389;BMP180;3735;50.136;11.062;2023-01-06T00:59:24;98629.00;;;8.50
7389;BMP180;3735;50.136;11.062;2023-01-06T01:01:54;98629.00;;;8.60
7389;BMP180;3735;50.136;11.062;2023-01-06T01:04:22;98626.00;;;8.70
7389;BMP180;3735;50.136;11.062;2023-01-06T01:06:50;98623.00;;;8.80
7389;BMP180;3735;50.136;11.062;2023-01-06T01:09:21;98625.00;;;8.80
7389;BMP180;3735;50.136;11.062;2023-01-06T01:11:49;98619.00;;;8.80
7389;BMP180;3735;50.136;11.062;2023-01-06T01:14:33;98619.00;;;8.80
7389;BMP180;3735;50.136;11.062;2023-01-06T01:16:59;98624.00;;;8.80
7389;BMP180;3735;50.136;11.062;2023-01-06T01:19:27;98622.00;;;8.80
7389;BMP180;3735;50.136;11.062;2023-01-06T01:21:53;98598.00;;;8.80
7389;BMP180;3735;50.136;11.062;2023-01-06T01:24:19;98626.00;;;8.80
7389;BMP180;3735;50.136;11.062;2023-01-06T01:26:46;98627.00;;;8.80
7389;BMP180;3735;50.136;11.062;2023-01-06T01:29:14;98630.00;;;8.80
7389;BMP180;3735;50.136;11.062;2023-01-06T01:31:41;98629.00;;;8.70
7389;BMP180;3735;50.136;11.062;2023-01-06T01:34:09;98623.00;;;8.70
7389;BMP180;3735;50.136;11.062;2023-01-06T01:36:36;98619.00;;;8.80
7389;BMP180;3735;50.136;11.062;2023-01-06T01:39:02;98612.00;;;8.70
7389;BMP180;3735;50.136;11.062;2023-01-06T01:41:29;98611.00;;;8.90
7389;BMP180;3735;50.136;11.062;2023-01-06T01:44:00;98610.00;;;8.80
7389;BMP180;3735;50.136;11.062;2023-01-06T01:46:40;98613.00;;;8.80
7389;BMP180;3735;50.136;11.062;2023-01-06T01:49:16;98610.00;;;8.70
7389;BMP180;3735;50.136;11.062;2023-01-06T01:51:47;98614.00;;;8.70
7389;BMP180;3735;50.136;11.062;2023-01-06T01:54:20;98609.00;;;8.70
7389;BMP180;3735;50.136;11.062;2023-01-06T01:56:54;98610.00;;;8.70
7389;BMP180;3735;50.136;11.062;2023-01-06T01:59:26;98609.00;;;8.70
7389;BMP180;3735;50.136;11.062;2023-01-06T02:01:53;98595.00;;;8.70
7389;BMP180;3735;50.136;11.062;2023-01-06T02:04:22;98590.00;;;8.60
7389;BMP180;3735;50.136;11.062;2023-01-06T02:06:49;98587.00;;;8.60
7389;BMP180;3735;50.136;11.062;2023-01-06T02:12:18;98574.00;;;8.50
7389;BMP180;3735;50.136;11.062;2023-01-06T02:14:44;98583.00;;;8.40
7389;BMP180;3735;50.136;11.062;2023-01-06T02:41:41;98550.00;;;8.40
7389;BMP180;3735;50.136;11.062;2023-01-06T02:44:19;98552.00;;;8.50
7389;BMP180;3735;50.136;11.062;2023-01-06T02:46:56;98560.00;;;8.50
7389;BMP180;3735;50.136;11.062;2023-01-06T02:49:41;98550.00;;;8.60
7389;BMP180;3735;50.136;11.062;2023-01-06T02:55:22;98558.00;;;8.70
7389;BMP180;3735;50.136;11.062;2023-01-06T02:58:26;98556.00;;;8.70
7389;BMP180;3735;50.136;11.062;2023-01-06T03:01:03;98563.00;;;8.80
7389;BMP180;3735;50.136;11.062;2023-01-06T03:03:34;98558.00;;;9.00
7389;BMP180;3735;50.136;11.062;2023-01-06T03:06:08;98555.00;;;9.00
7389;BMP180;3735;50.136;11.062;2023-01-06T03:08:36;98559.00;;;8.80
7389;BMP180;3735;50.136;11.062;2023-01-06T03:11:03;98556.00;;;8.80
7389;BMP180;3735;50.136;11.062;2023-01-06T03:13:36;98553.00;;;8.80
7389;BMP180;3735;50.136;11.062;2023-01-06T03:16:05;98541.00;;;8.80
7389;BMP180;3735;50.136;11.062;2023-01-06T03:18:32;98538.00;;;9.10
7389;BMP180;3735;50.136;11.062;2023-01-06T03:21:04;98542.00;;;9.20
7389;BMP180;3735;50.136;11.062;2023-01-06T03:23:33;98522.00;;;9.20
7389;BMP180;3735;50.136;11.062;2023-01-06T03:25:59;98527.00;;;9.30
7389;BMP180;3735;50.136;11.062;2023-01-06T03:28:25;98524.00;;;9.30
7389;BMP180;3735;50.136;11.062;2023-01-06T03:31:23;98522.00;;;9.30
7389;BMP180;3735;50.136;11.062;2023-01-06T03:42:50;98505.00;;;9.50
7389;BMP180;3735;50.136;11.062;2023-01-06T03:45:47;98508.00;;;9.50
7389;BMP180;3735;50.136;11.062;2023-01-06T03:57:03;98500.00;;;9.60
7389;BMP180;3735;50.136;11.062;2023-01-06T03:59:34;98491.00;;;9.60
7389;BMP180;3735;50.136;11.062;2023-01-06T04:02:03;98497.00;;;9.60
7389;BMP180;3735;50.136;11.062;2023-01-06T04:04:30;98502.00;;;9.60
7389;BMP180;3735;50.136;11.062;2023-01-06T04:06:56;98498.00;;;9.70
7389;BMP180;3735;50.136;11.062;2023-01-06T04:09:22;98494.00;;;9.70
7389;BMP180;3735;50.136;11.062;2023-01-06T04:11:47;98494.00;;;9.70
7389;BMP180;3735;50.136;11.062;2023-01-06T04:14:32;98491.00;;;9.70
7389;BMP180;3735;50.136;11.062;2023-01-06T04:16:58;98504.00;;;9.60
7389;BMP180;3735;50.136;11.062;2023-01-06T04:19:23;98442.00;;;9.70
7389;BMP180;3735;50.136;11.062;2023-01-06T04:21:49;98492.00;;;9.70
7389;BMP180;3735;50.136;11.062;2023-01-06T04:24:15;98485.00;;;9.70
7389;BMP180;3735;50.136;11.062;2023-01-06T04:26:40;98491.00;;;9.80
7389;BMP180;3735;50.136;11.062;2023-01-06T04:29:06;98492.00;;;9.80
7389;BMP180;3735;50.136;11.062;2023-01-06T04:31:32;98484.00;;;9.80
7389;BMP180;3735;50.136;11.062;2023-01-06T04:33:58;98482.00;;;9.80
7389;BMP180;3735;50.136;11.062;2023-01-06T04:36:23;98478.00;;;9.80
7389;BMP180;3735;50.136;11.062;2023-01-06T04:38:49;98469.00;;;9.70
7389;BMP180;3735;50.136;11.062;2023-01-06T04:41:15;98474.00;;;9.70
7389;BMP180;3735;50.136;11.062;2023-01-06T04:43:41;98471.00;;;9.80
7389;BMP180;3735;50.136;11.062;2023-01-06T04:46:07;98464.00;;;9.80
7389;BMP180;3735;50.136;11.062;2023-01-06T04:48:32;98469.00;;;9.80
7389;BMP180;3735;50.136;11.062;2023-01-06T04:51:04;98463.00;;;9.80
7389;BMP180;3735;50.136;11.062;2023-01-06T04:53:39;98458.00;;;9.70
7389;BMP180;3735;50.136;11.062;2023-01-06T04:56:10;98467.00;;;9.80
7389;BMP180;3735;50.136;11.062;2023-01-06T04:58:36;98461.00;;;9.70
7389;BMP180;3735;50.136;11.062;2023-01-06T05:01:09;98455.00;;;9.80
7389;BMP180;3735;50.136;11.062;2023-01-06T05:03:37;98457.00;;;9.80
7389;BMP180;3735;50.136;11.062;2023-01-06T05:06:06;98466.00;;;9.80
7389;BMP180;3735;50.136;11.062;2023-01-06T05:08:37;98454.00;;;9.80
7389;BMP180;3735;50.136;11.062;2023-01-06T05:11:12;98457.00;;;9.80
7389;BMP180;3735;50.136;11.062;2023-01-06T05:13:38;98454.00;;;9.80
7389;BMP180;3735;50.136;11.062;2023-01-06T05:16:08;98449.00;;;9.90
7389;BMP180;3735;50.136;11.062;2023-01-06T05:18:34;98429.00;;;9.80
7389;BMP180;3735;50.136;11.062;2023-01-06T05:21:00;98440.00;;;9.80
7389;BMP180;3735;50.136;11.062;2023-01-06T05:23:26;98450.00;;;9.80
7389;BMP180;3735;50.136;11.062;2023-01-06T05:25:53;98431.00;;;9.80
7389;BMP180;3735;50.136;11.062;2023-01-06T05:28:19;98440.00;;;9.80
7389;BMP180;3735;50.136;11.062;2023-01-06T05:30:46;98444.00;;;9.80
7389;BMP180;3735;50.136;11.062;2023-01-06T05:33:12;98442.00;;;9.80
7389;BMP180;3735;50.136;11.062;2023-01-06T05:35:37;98444.00;;;9.90
7389;BMP180;3735;50.136;11.062;2023-01-06T05:38:03;98435.00;;;9.90
7389;BMP180;3735;50.136;11.062;2023-01-06T05:40:29;98431.00;;;9.90
7389;BMP180;3735;50.136;11.062;2023-01-06T05:42:56;98420.00;;;10.00
7389;BMP180;3735;50.136;11.062;2023-01-06T05:45:23;98429.00;;;9.90
7389;BMP180;3735;50.136;11.062;2023-01-06T05:47:50;98432.00;;;10.00
7389;BMP180;3735;50.136;11.062;2023-01-06T05:50:16;98428.00;;;10.00
7389;BMP180;3735;50.136;11.062;2023-01-06T05:52:43;98427.00;;;10.00
7389;BMP180;3735;50.136;11.062;2023-01-06T05:55:09;98436.00;;;10.00
7389;BMP180;3735;50.136;11.062;2023-01-06T05:57:36;98441.00;;;10.00
7389;BMP180;3735;50.136;11.062;2023-01-06T06:00:07;98438.00;;;10.00
7389;BMP180;3735;50.136;11.062;2023-01-06T06:02:33;98431.00;;;10.00
7389;BMP180;3735;50.136;11.062;2023-01-06T06:04:58;98432.00;;;10.00
7389;BMP180;3735;50.136;11.062;2023-01-06T06:07:24;98435.00;;;10.00
7389;BMP180;3735;50.136;11.062;2023-01-06T06:09:50;98441.00;;;10.00
7389;BMP180;3735;50.136;11.062;2023-01-06T06:12:15;98435.00;;;10.00
7389;BMP180;3735;50.136;11.062;2023-01-06T06:14:41;98434.00;;;10.00
7389;BMP180;3735;50.136;11.062;2023-01-06T06:17:07;98429.00;;;10.00
7389;BMP180;3735;50.136;11.062;2023-01-06T06:19:32;98437.00;;;10.00
7389;BMP180;3735;50.136;11.062;2023-01-06T06:21:58;98440.00;;;10.00
7389;BMP180;3735;50.136;11.062;2023-01-06T06:24:24;98439.00;;;10.10
7389;BMP180;3735;50.136;11.062;2023-01-06T06:26:50;98438.00;;;10.10
7389;BMP180;3735;50.136;11.062;2023-01-06T06:29:16;98443.00;;;10.10
7389;BMP180;3735;50.136;11.062;2023-01-06T06:31:41;98449.00;;;10.10
7389;BMP180;3735;50.136;11.062;2023-01-06T06:34:12;98461.00;;;10.10
7389;BMP180;3735;50.136;11.062;2023-01-06T06:36:37;98456.00;;;10.10
7389;BMP180;3735;50.136;11.062;2023-01-06T06:39:03;98449.00;;;9.90
7389;BMP180;3735;50.136;11.062;2023-01-06T06:41:29;98458.00;;;9.90
7389;BMP180;3735;50.136;11.062;2023-01-06T06:43:55;98449.00;;;9.80
7389;BMP180;3735;50.136;11.062;2023-01-06T06:46:21;98451.00;;;9.80
7389;BMP180;3735;50.136;11.062;2023-01-06T06:48:48;98454.00;;;9.90
7389;BMP180;3735;50.136;11.062;2023-01-06T06:51:17;98461.00;;;9.80
7389;BMP180;3735;50.136;11.062;2023-01-06T06:53:44;98453.00;;;9.80
7389;BMP180;3735;50.136;11.062;2023-01-06T06:56:12;98454.00;;;9.70
7389;BMP180;3735;50.136;11.062;2023-01-06T06:58:38;98460.00;;;9.70
7389;BMP180;3735;50.136;11.062;2023-01-06T07:01:08;98461.00;;;9.70
7389;BMP180;3735;50.136;11.062;2023-01-06T07:03:35;98463.00;;;9.70
7389;BMP180;3735;50.136;11.062;2023-01-06T07:06:02;98473.00;;;9.80
7389;BMP180;3735;50.136;11.062;2023-01-06T07:08:29;98478.00;;;9.80
7389;BMP180;3735;50.136;11.062;2023-01-06T07:10:57;98475.00;;;9.80
7389;BMP180;3735;50.136;11.062;2023-01-06T07:13:23;98479.00;;;9.70
7389;BMP180;3735;50.136;11.062;2023-01-06T07:15:49;98480.00;;;9.80
7389;BMP180;3735;50.136;11.062;2023-01-06T07:18:15;98476.00;;;9.80
7389;BMP180;3735;50.136;11.062;2023-01-06T07:20:47;98472.00;;;9.80
7389;BMP180;3735;50.136;11.062;2023-01-06T07:23:15;98470.00;;;9.80
7389;BMP180;3735;50.136;11.062;2023-01-06T07:25:41;98472.00;;;9.80
7389;BMP180;3735;50.136;11.062;2023-01-06T07:28:06;98459.00;;;9.80
7389;BMP180;3735;50.136;11.062;2023-01-06T07:30:35;98476.00;;;9.70
7389;BMP180;3735;50.136;11.062;2023-01-06T07:33:01;98465.00;;;9.80
7389;BMP180;3735;50.136;11.062;2023-01-06T07:35:27;98473.00;;;9.80
7389;BMP180;3735;50.136;11.062;2023-01-06T07:37:53;98462.00;;;9.80
7389;BMP180;3735;50.136;11.062;2023-01-06T07:40:19;98466.00;;;9.70
7389;BMP180;3735;50.136;11.062;2023-01-06T07:42:45;98451.00;;;9.80
7389;BMP180;3735;50.136;11.062;2023-01-06T07:45:12;98459.00;;;9.80
7389;BMP180;3735;50.136;11.062;2023-01-06T07:47:38;98471.00;;;9.90
7389;BMP180;3735;50.136;11.062;2023-01-06T07:50:05;98456.00;;;9.90
7389;BMP180;3735;50.136;11.062;2023-01-06T07:52:31;98457.00;;;10.00
7389;BMP180;3735;50.136;11.062;2023-01-06T07:54:56;98463.00;;;10.00
7389;BMP180;3735;50.136;11.062;2023-01-06T07:57:29;98462.00;;;10.10
7389;BMP180;3735;50.136;11.062;2023-01-06T07:59:55;98464.00;;;10.10
7389;BMP180;3735;50.136;11.062;2023-01-06T08:02:21;98457.00;;;10.10
7389;BMP180;3735;50.136;11.062;2023-01-06T08:04:47;98457.00;;;10.10
7389;BMP180;3735;50.136;11.062;2023-01-06T08:07:16;98469.00;;;10.10
7389;BMP180;3735;50.136;11.062;2023-01-06T08:09:42;98471.00;;;10.10
7389;BMP180;3735;50.136;11.062;2023-01-06T08:12:08;98467.00;;;10.10
7389;BMP180;3735;50.136;11.062;2023-01-06T08:14:34;98466.00;;;10.10
7389;BMP180;3735;50.136;11.062;2023-01-06T08:16:59;98470.00;;;10.10
7389;BMP180;3735;50.136;11.062;2023-01-06T08:19:30;98472.00;;;10.10
7389;BMP180;3735;50.136;11.062;2023-01-06T08:21:55;98475.00;;;10.10
7389;BMP180;3735;50.136;11.062;2023-01-06T08:24:21;98471.00;;;10.10
7389;BMP180;3735;50.136;11.062;2023-01-06T08:26:47;98480.00;;;10.00
7389;BMP180;3735;50.136;11.062;2023-01-06T08:29:13;98478.00;;;10.10
7389;BMP180;3735;50.136;11.062;2023-01-06T08:31:39;98480.00;;;10.10
7389;BMP180;3735;50.136;11.062;2023-01-06T08:34:04;98477.00;;;10.20
7389;BMP180;3735;50.136;11.062;2023-01-06T08:36:30;98474.00;;;10.20
7389;BMP180;3735;50.136;11.062;2023-01-06T08:38:56;98481.00;;;10.20
7389;BMP180;3735;50.136;11.062;2023-01-06T08:41:22;98479.00;;;10.20
7389;BMP180;3735;50.136;11.062;2023-01-06T08:43:48;98479.00;;;10.20
7389;BMP180;3735;50.136;11.062;2023-01-06T08:46:18;98486.00;;;10.10
7389;BMP180;3735;50.136;11.062;2023-01-06T08:48:45;98484.00;;;10.10
7389;BMP180;3735;50.136;11.062;2023-01-06T08:51:16;98488.00;;;10.10
7389;BMP180;3735;50.136;11.062;2023-01-06T08:53:42;98480.00;;;10.20
7389;BMP180;3735;50.136;11.062;2023-01-06T08:56:19;98475.00;;;10.20
7389;BMP180;3735;50.136;11.062;2023-01-06T08:58:54;98475.00;;;10.20
7389;BMP180;3735;50.136;11.062;2023-01-06T09:01:25;98477.00;;;10.20
7389;BMP180;3735;50.136;11.062;2023-01-06T09:03:52;98477.00;;;10.20
7389;BMP180;3735;50.136;11.062;2023-01-06T09:06:19;98470.00;;;10.40
7389;BMP180;3735;50.136;11.062;2023-01-06T09:08:46;98489.00;;;10.40
7389;BMP180;3735;50.136;11.062;2023-01-06T09:11:14;98490.00;;;10.40
7389;BMP180;3735;50.136;11.062;2023-01-06T09:13:42;98486.00;;;10.30
7389;BMP180;3735;50.136;11.062;2023-01-06T09:16:09;98488.00;;;10.30
7389;BMP180;3735;50.136;11.062;2023-01-06T09:18:37;98490.00;;;10.30
7389;BMP180;3735;50.136;11.062;2023-01-06T09:21:04;98480.00;;;10.20
7389;BMP180;3735;50.136;11.062;2023-01-06T09:23:31;98493.00;;;10.20
7389;BMP180;3735;50.136;11.062;2023-01-06T09:25:57;98477.00;;;10.10
7389;BMP180;3735;50.136;11.062;2023-01-06T09:28:24;98483.00;;;10.20
7389;BMP180;3735;50.136;11.062;2023-01-06T09:30:50;98488.00;;;10.10
7389;BMP180;3735;50.136;11.062;2023-01-06T09:33:17;98500.00;;;10.10
7389;BMP180;3735;50.136;11.062;2023-01-06T09:35:44;98498.00;;;10.00
7389;BMP180;3735;50.136;11.062;2023-01-06T09:38:12;98502.00;;;10.00
7389;BMP180;3735;50.136;11.062;2023-01-06T09:44:19;98483.00;;;10.10
7389;BMP180;3735;50.136;11.062;2023-01-06T09:46:50;98488.00;;;10.20
7389;BMP180;3735;50.136;11.062;2023-01-06T09:49:32;98495.00;;;10.30
7389;BMP180;3735;50.136;11.062;2023-01-06T09:54:59;98483.00;;;10.30
7389;BMP180;3735;50.136;11.062;2023-01-06T09:57:40;98488.00;;;10.30
7389;BMP180;3735;50.136;11.062;2023-01-06T10:00:19;98485.00;;;10.30
7389;BMP180;3735;50.136;11.062;2023-01-06T10:02:47;98477.00;;;10.30
7389;BMP180;3735;50.136;11.062;2023-01-06T10:08:54;98484.00;;;10.30
7389;BMP180;3735;50.136;11.062;2023-01-06T10:15:28;98474.00;;;10.50
7389;BMP180;3735;50.136;11.062;2023-01-06T10:23:44;98468.00;;;10.60
7389;BMP180;3735;50.136;11.062;2023-01-06T10:26:29;98476.00;;;10.60
7389;BMP180;3735;50.136;11.062;2023-01-06T10:29:03;98471.00;;;10.50
7389;BMP180;3735;50.136;11.062;2023-01-06T10:31:35;98470.00;;;10.60
7389;BMP180;3735;50.136;11.062;2023-01-06T10:34:12;98474.00;;;10.50
7389;BMP180;3735;50.136;11.062;2023-01-06T10:36:44;98488.00;;;10.50
7389;BMP180;3735;50.136;11.062;2023-01-06T10:39:21;98486.00;;;10.40
7389;BMP180;3735;50.136;11.062;2023-01-06T10:44:17;98473.00;;;10.40
7389;BMP180;3735;50.136;11.062;2023-01-06T10:46:44;98476.00;;;10.40
7389;BMP180;3735;50.136;11.062;2023-01-06T10:49:17;98473.00;;;10.30
7389;BMP180;3735;50.136;11.062;2023-01-06T10:51:51;98486.00;;;10.40
7389;BMP180;3735;50.136;11.062;2023-01-06T10:54:27;98489.00;;;10.40
7389;BMP180;3735;50.136;11.062;2023-01-06T10:57:03;98498.00;;;10.30
7389;BMP180;3735;50.136;11.062;2023-01-06T10:59:30;98491.00;;;10.20
7389;BMP180;3735;50.136;11.062;2023-01-06T11:01:56;98488.00;;;10.40
7389;BMP180;3735;50.136;11.062;2023-01-06T11:04:26;98480.00;;;10.40
7389;BMP180;3735;50.136;11.062;2023-01-06T11:07:00;98485.00;;;10.50
7389;BMP180;3735;50.136;11.062;2023-01-06T11:09:39;98479.00;;;10.40
7389;BMP180;3735;50.136;11.062;2023-01-06T11:12:21;98487.00;;;10.40
7389;BMP180;3735;50.136;11.062;2023-01-06T11:15:02;98486.00;;;10.40
7389;BMP180;3735;50.136;11.062;2023-01-06T11:17:31;98482.00;;;10.30
7389;BMP180;3735;50.136;11.062;2023-01-06T11:20:30;98495.00;;;10.20
7389;BMP180;3735;50.136;11.062;2023-01-06T11:23:21;98491.00;;;10.10
7389;BMP180;3735;50.136;11.062;2023-01-06T11:26:21;98504.00;;;10.10
7389;BMP180;3735;50.136;11.062;2023-01-06T11:28:53;98503.00;;;10.10
7389;BMP180;3735;50.136;11.062;2023-01-06T11:31:21;98505.00;;;10.00
7389;BMP180;3735;50.136;11.062;2023-01-06T11:34:01;98512.00;;;10.10
7389;BMP180;3735;50.136;11.062;2023-01-06T11:36:31;98508.00;;;9.90
7389;BMP180;3735;50.136;11.062;2023-01-06T11:39:17;98499.00;;;9.80
7389;BMP180;3735;50.136;11.062;2023-01-06T11:41:49;98506.00;;;9.80
7389;BMP180;3735;50.136;11.062;2023-01-06T11:44:30;98505.00;;;9.80
7389;BMP180;3735;50.136;11.062;2023-01-06T11:47:21;98501.00;;;9.80
7389;BMP180;3735;50.136;11.062;2023-01-06T11:49:57;98499.00;;;9.90
7389;BMP180;3735;50.136;11.062;2023-01-06T11:52:32;98493.00;;;9.90
7389;BMP180;3735;50.136;11.062;2023-01-06T11:55:21;98484.00;;;9.90
7389;BMP180;3735;50.136;11.062;2023-01-06T11:58:14;98484.00;;;10.10
7389;BMP180;3735;50.136;11.062;2023-01-06T12:00:53;98482.00;;;10.20
7389;BMP180;3735;50.136;11.062;2023-01-06T12:03:40;98486.00;;;10.10
7389;BMP180;3735;50.136;11.062;2023-01-06T12:09:41;98484.00;;;10.10
7389;BMP180;3735;50.136;11.062;2023-01-06T12:11:57;98467.00;;;10.00
7389;BMP180;3735;50.136;11.062;2023-01-06T12:14:34;98461.00;;;10.00
7389;BMP180;3735;50.136;11.062;2023-01-06T12:20:02;98458.00;;;10.00
7389;BMP180;3735;50.136;11.062;2023-01-06T12:22:40;98459.00;;;10.00
7389;BMP180;3735;50.136;11.062;2023-01-06T12:25:43;98462.00;;;9.80
7389;BMP180;3735;50.136;11.062;2023-01-06T12:28:48;98454.00;;;9.80
7389;BMP180;3735;50.136;11.062;2023-01-06T12:31:42;98464.00;;;9.70
7389;BMP180;3735;50.136;11.062;2023-01-06T12:34:48;98456.00;;;9.70
7389;BMP180;3735;50.136;11.062;2023-01-06T12:37:37;98472.00;;;9.60
7389;BMP180;3735;50.136;11.062;2023-01-06T12:40:33;98475.00;;;9.60
7389;BMP180;3735;50.136;11.062;2023-01-06T12:43:23;98478.00;;;9.60
7389;BMP180;3735;50.136;11.062;2023-01-06T12:46:18;98468.00;;;9.60
7389;BMP180;3735;50.136;11.062;2023-01-06T12:49:10;98482.00;;;9.70
7389;BMP180;3735;50.136;11.062;2023-01-06T12:51:45;98477.00;;;9.60
7389;BMP180;3735;50.136;11.062;2023-01-06T12:54:26;98482.00;;;9.60
7389;BMP180;3735;50.136;11.062;2023-01-06T12:57:48;98479.00;;;9.60
7389;BMP180;3735;50.136;11.062;2023-01-06T13:00:35;98486.00;;;9.50
7389;BMP180;3735;50.136;11.062;2023-01-06T13:06:14;98487.00;;;9.60
7389;BMP180;3735;50.136;11.062;2023-01-06T13:09:27;98490.00;;;9.60
7389;BMP180;3735;50.136;11.062;2023-01-06T13:12:40;98494.00;;;9.70
7389;BMP180;3735;50.136;11.062;2023-01-06T13:15:25;98484.00;;;9.60
7389;BMP180;3735;50.136;11.062;2023-01-06T13:18:31;98492.00;;;9.70
7389;BMP180;3735;50.136;11.062;2023-01-06T13:24:02;98486.00;;;9.60
7389;BMP180;3735;50.136;11.062;2023-01-06T13:29:38;98492.00;;;9.70
7389;BMP180;3735;50.136;11.062;2023-01-06T13:40:46;98489.00;;;9.60
7389;BMP180;3735;50.136;11.062;2023-01-06T13:43:20;98485.00;;;9.70
7389;BMP180;3735;50.136;11.062;2023-01-06T13:45:54;98490.00;;;9.70
7389;BMP180;3735;50.136;11.062;2023-01-06T13:48:34;98479.00;;;9.70
7389;BMP180;3735;50.136;11.062;2023-01-06T13:51:09;98496.00;;;9.60
7389;BMP180;3735;50.136;11.062;2023-01-06T13:53:43;98498.00;;;9.60
7389;BMP180;3735;50.136;11.062;2023-01-06T13:58:40;98506.00;;;9.60
7389;BMP180;3735;50.136;11.062;2023-01-06T14:01:30;98508.00;;;9.60
7389;BMP180;3735;50.136;11.062;2023-01-06T14:06:57;98513.00;;;9.60
7389;BMP180;3735;50.136;11.062;2023-01-06T14:09:25;98514.00;;;9.60
7389;BMP180;3735;50.136;11.062;2023-01-06T14:11:53;98513.00;;;9.60
7389;BMP180;3735;50.136;11.062;2023-01-06T14:14:27;98514.00;;;9.50
7389;BMP180;3735;50.136;11.062;2023-01-06T14:16:57;98501.00;;;9.60
7389;BMP180;3735;50.136;11.062;2023-01-06T14:19:35;98513.00;;;9.50
7389;BMP180;3735;50.136;11.062;2023-01-06T14:22:22;98498.00;;;9.50
7389;BMP180;3735;50.136;11.062;2023-01-06T14:25:05;98491.00;;;9.50
7389;BMP180;3735;50.136;11.062;2023-01-06T14:30:40;98475.00;;;9.50
7389;BMP180;3735;50.136;11.062;2023-01-06T14:35:40;98502.00;;;9.40
7389;BMP180;3735;50.136;11.062;2023-01-06T14:38:31;98507.00;;;9.40
7389;BMP180;3735;50.136;11.062;2023-01-06T14:41:01;98520.00;;;9.40
7389;BMP180;3735;50.136;11.062;2023-01-06T14:46:15;98535.00;;;9.50
7389;BMP180;3735;50.136;11.062;2023-01-06T14:48:59;98528.00;;;9.50
7389;BMP180;3735;50.136;11.062;2023-01-06T14:51:28;98537.00;;;9.40
7389;BMP180;3735;50.136;11.062;2023-01-06T14:54:02;98531.00;;;9.40
7389;BMP180;3735;50.136;11.062;2023-01-06T14:56:31;98536.00;;;9.40
7389;BMP180;3735;50.136;11.062;2023-01-06T14:59:09;98542.00;;;9.40
7389;BMP180;3735;50.136;11.062;2023-01-06T15:01:40;98537.00;;;9.40
7389;BMP180;3735;50.136;11.062;2023-01-06T15:04:20;98549.00;;;9.20
7389;BMP180;3735;50.136;11.062;2023-01-06T15:07:21;98548.00;;;9.20
7389;BMP180;3735;50.136;11.062;2023-01-06T15:09:50;98540.00;;;9.20
7389;BMP180;3735;50.136;11.062;2023-01-06T15:12:31;98543.00;;;9.20
7389;BMP180;3735;50.136;11.062;2023-01-06T15:15:28;98547.00;;;9.20
7389;BMP180;3735;50.136;11.062;2023-01-06T15:17:56;98560.00;;;9.20
7389;BMP180;3735;50.136;11.062;2023-01-06T15:20:30;98556.00;;;9.20
7389;BMP180;3735;50.136;11.062;2023-01-06T15:22:56;98558.00;;;9.20
7389;BMP180;3735;50.136;11.062;2023-01-06T15:25:27;98559.00;;;9.20
7389;BMP180;3735;50.136;11.062;2023-01-06T15:27:54;98554.00;;;9.10
7389;BMP180;3735;50.136;11.062;2023-01-06T15:30:27;98561.00;;;9.20
7389;BMP180;3735;50.136;11.062;2023-01-06T15:32:54;98570.00;;;9.20
7389;BMP180;3735;50.136;11.062;2023-01-06T15:35:30;98577.00;;;9.10
7389;BMP180;3735;50.136;11.062;2023-01-06T15:38:24;98571.00;;;9.10
7389;BMP180;3735;50.136;11.062;2023-01-06T15:40:51;98579.00;;;9.10
7389;BMP180;3735;50.136;11.062;2023-01-06T15:43:21;98563.00;;;9.10
7389;BMP180;3735;50.136;11.062;2023-01-06T15:46:02;98565.00;;;9.10
7389;BMP180;3735;50.136;11.062;2023-01-06T15:48:34;98569.00;;;9.00
7389;BMP180;3735;50.136;11.062;2023-01-06T15:51:09;98577.00;;;9.00
7389;BMP180;3735;50.136;11.062;2023-01-06T15:53:35;98567.00;;;9.00
7389;BMP180;3735;50.136;11.062;2023-01-06T15:56:02;98565.00;;;8.90
7389;BMP180;3735;50.136;11.062;2023-01-06T15:58:31;98568.00;;;9.00
7389;BMP180;3735;50.136;11.062;2023-01-06T16:01:28;98578.00;;;9.00
7389;BMP180;3735;50.136;11.062;2023-01-06T16:03:59;98576.00;;;9.00
7389;BMP180;3735;50.136;11.062;2023-01-06T16:08:52;98569.00;;;9.00
7389;BMP180;3735;50.136;11.062;2023-01-06T16:11:28;98573.00;;;9.00
7389;BMP180;3735;50.136;11.062;2023-01-06T16:16:39;98574.00;;;9.00
7389;BMP180;3735;50.136;11.062;2023-01-06T16:19:13;98573.00;;;8.90
7389;BMP180;3735;50.136;11.062;2023-01-06T16:21:42;98561.00;;;8.90
7389;BMP180;3735;50.136;11.062;2023-01-06T16:24:25;98577.00;;;9.00
7389;BMP180;3735;50.136;11.062;2023-01-06T16:27:04;98571.00;;;9.00
7389;BMP180;3735;50.136;11.062;2023-01-06T16:29:36;98577.00;;;9.00
7389;BMP180;3735;50.136;11.062;2023-01-06T16:32:30;98578.00;;;9.00
7389;BMP180;3735;50.136;11.062;2023-01-06T16:35:10;98578.00;;;9.10
7389;BMP180;3735;50.136;11.062;2023-01-06T16:37:36;98573.00;;;9.10
7389;BMP180;3735;50.136;11.062;2023-01-06T16:40:02;98572.00;;;9.00
7389;BMP180;3735;50.136;11.062;2023-01-06T16:42:34;98571.00;;;9.00
7389;BMP180;3735;50.136;11.062;2023-01-06T16:45:12;98568.00;;;9.00
7389;BMP180;3735;50.136;11.062;2023-01-06T16:47:39;98576.00;;;9.00
7389;BMP180;3735;50.136;11.062;2023-01-06T16:53:00;98567.00;;;8.90
7389;BMP180;3735;50.136;11.062;2023-01-06T16:55:27;98568.00;;;8.90